Time;durP1;ratioP1;P1;durP2;ratioP2;P2;SDS_P1;SDS_P2;PMS_P1;PMS_P2;Temp;Humidity;BMP_temperature;BMP_pressure;BME280_temperature;BME280_humidity;BME280_pressure;Samples;Min_cycle;Max_cycle;Signal;HPM_P1;HPM_P2
2024/04/11 00:00:29;;;;;;;;;;;10.50;99.90;;;11.20;56.91;101794.97;5532022;25;19927;-82
2024/04/11 00:02:58;;;;;;;;;;;10.50;99.90;;;11.17;56.77;101790.81;5531900;25;19938;-83
2024/04/11 00:05:25;;;;;;;;;;;10.50;99.90;;;11.14;56.90;101796.53;5529311;26;20002;-83
2024/04/11 00:07:54;;;;;;;;;;;10.60;99.90;;;11.12;56.47;101793.19;5528902;25;19927;-82
2024/04/11 00:10:20;;;;;;;;;;;10.50;99.90;;;11.13;56.53;101794.88;5531666;25;20366;-82
2024/04/11 00:12:49;;;;;;;;;;;10.50;99.90;;;11.13;56.98;101794.88;5529484;26;19927;-82
2024/04/11 00:15:20;;;;;;;;;;;10.70;99.90;;;11.16;57.29;101791.00;5531475;25;19927;-82
2024/04/11 00:17:49;;;;;;;;;;;10.60;99.90;;;11.17;57.02;101788.13;5532685;26;20342;-82
2024/04/11 00:20:16;;;;;;;;;;;10.60;99.90;;;11.18;56.85;101797.81;5535203;26;19937;-82
2024/04/11 00:22:45;;;;;;;;;;;10.60;99.90;;;11.20;56.87;101793.13;5534902;26;19935;-82
2024/04/11 00:25:11;;;;;;;;;;;10.60;99.90;;;11.18;56.58;101797.81;5515629;25;20387;-82
2024/04/11 00:27:40;;;;;;;;;;;10.60;99.90;;;11.19;56.67;101794.13;5496286;26;19939;-82
2024/04/11 00:30:07;;;;;;;;;;;10.60;99.90;;;11.20;56.61;101801.13;5496336;26;19935;-82
2024/04/11 00:32:39;;;;;;;;;;;10.70;99.90;;;11.16;56.21;101796.34;5498053;26;19928;-82
2024/04/11 00:35:06;;;;;;;;;;;10.60;99.90;;;11.17;56.43;101793.47;5498035;26;19928;-83
2024/04/11 00:37:36;;;;;;;;;;;10.70;99.90;;;11.16;56.00;101799.00;5496148;26;19996;-82
2024/04/11 00:40:03;;;;;;;;;;;10.70;99.90;;;11.16;56.44;101785.66;5496069;26;19956;-82
2024/04/11 00:42:32;;;;;;;;;;;10.70;99.90;;;11.20;56.36;101797.63;5498305;26;19936;-82
2024/04/11 00:44:59;;;;;;;;;;;10.70;99.90;;;11.20;56.46;101803.81;5497699;26;20022;-82
2024/04/11 00:47:29;;;;;;;;;;;10.70;99.90;;;11.18;56.30;101794.34;5465784;26;20362;-82
2024/04/11 00:49:59;;;;;;;;;;;10.70;99.90;;;11.19;56.80;101793.31;5435949;26;19928;-82
2024/04/11 00:52:28;;;;;;;;;;;10.70;99.90;;;11.17;56.50;101790.81;5523662;26;19928;-83
2024/04/11 00:54:56;;;;;;;;;;;10.70;99.90;;;11.18;56.09;101797.81;5534522;25;19927;-83
2024/04/11 00:57:25;;;;;;;;;;;10.60;99.90;;;11.20;56.42;101794.97;5501927;26;20387;-82
2024/04/11 00:59:52;;;;;;;;;;;10.70;99.90;;;11.22;56.29;101801.75;5532444;26;19935;-82
2024/04/11 01:02:20;;;;;;;;;;;10.70;99.90;;;11.19;56.29;101793.31;5506155;26;20447;-82
2024/04/11 01:04:47;;;;;;;;;;;10.70;99.90;;;11.22;56.18;101803.59;5495361;26;19936;-82
2024/04/11 01:07:18;;;;;;;;;;;10.70;99.90;;;11.23;56.34;101800.78;5495232;26;20272;-82
2024/04/11 01:09:45;;;;;;;;;;;10.70;99.90;;;11.25;56.28;101808.59;5495372;26;20267;-82
2024/04/11 01:12:16;;;;;;;;;;;10.70;99.90;;;11.18;56.25;101803.16;5524980;26;19976;-82
2024/04/11 01:14:44;;;;;;;;;;;10.70;99.90;;;11.15;55.86;101800.03;5529003;26;20000;-82
2024/04/11 01:17:13;;;;;;;;;;;10.60;99.90;;;11.14;56.13;101801.03;5532167;26;19928;-82
2024/04/11 01:19:44;;;;;;;;;;;10.70;99.90;;;11.14;56.03;101795.69;5501213;26;19961;-82
2024/04/11 01:22:13;;;;;;;;;;;10.60;99.90;;;11.11;56.29;101796.06;5494902;26;19939;-82
2024/04/11 01:24:42;;;;;;;;;;;10.60;99.90;;;11.05;55.98;101782.41;5496865;26;19935;-83
2024/04/11 01:27:15;;;;;;;;;;;10.60;99.90;;;11.07;56.29;101779.56;5464850;26;19939;-82
2024/04/11 01:29:41;;;;;;;;;;;10.60;99.90;;;11.08;56.08;101783.91;5471933;26;19934;-82
2024/04/11 01:32:10;;;;;;;;;;;10.60;99.90;;;11.08;56.24;101790.06;5496281;26;19928;-82
2024/04/11 01:34:37;;;;;;;;;;;10.60;99.90;;;11.08;55.65;101783.91;5496922;26;19927;-82
2024/04/11 01:37:06;;;;;;;;;;;10.60;99.90;;;11.06;55.76;101794.75;5515679;26;19934;-82
2024/04/11 01:39:32;;;;;;;;;;;10.60;99.90;;;11.03;55.71;101796.97;5534173;25;19927;-82
2024/04/11 01:42:04;;;;;;;;;;;10.60;99.90;;;10.98;55.21;101799.34;5533522;26;19931;-82
2024/04/11 01:44:31;;;;;;;;;;;10.60;99.90;;;10.97;55.92;101797.69;5533014;25;19993;-82
2024/04/11 01:47:00;;;;;;;;;;;10.50;99.90;;;10.96;55.59;101798.69;5499779;26;19939;-82
2024/04/11 01:49:30;;;;;;;;;;;10.50;99.90;;;10.94;55.94;101795.38;5530976;26;19951;-83
2024/04/11 01:51:59;;;;;;;;;;;10.50;99.90;;;10.96;56.04;101796.84;5471945;26;19935;-82
2024/04/11 01:54:25;;;;;;;;;;;10.50;99.90;;;10.95;55.30;101797.03;5533589;25;19935;-82
2024/04/11 01:56:54;;;;;;;;;;;10.50;99.90;;;10.95;55.74;101799.72;5507790;26;19973;-82
2024/04/11 01:59:23;;;;;;;;;;;10.60;99.90;;;10.99;55.66;101801.00;5494712;26;19928;-83
2024/04/11 02:01:52;;;;;;;;;;;10.60;99.90;;;10.98;55.28;101807.34;5494977;26;19928;-82
2024/04/11 02:04:18;;;;;;;;;;;10.60;99.90;;;11.00;55.58;101806.16;5405587;26;20267;-82
2024/04/11 02:06:47;;;;;;;;;;;10.60;99.90;;;11.03;55.35;101810.31;5513872;25;19935;-82
2024/04/11 02:09:21;;;;;;;;;;;10.60;99.90;;;11.02;55.46;101808.63;5533309;26;19927;-83
2024/04/11 02:11:53;;;;;;;;;;;10.60;99.90;;;11.06;55.39;101808.09;5530885;26;19995;-83
2024/04/11 02:14:22;;;;;;;;;;;10.60;99.90;;;11.07;55.49;101817.75;5533348;25;19959;-83
2024/04/11 02:16:54;;;;;;;;;;;10.60;99.90;;;11.00;55.32;101814.16;5532180;25;19943;-83
2024/04/11 02:19:20;;;;;;;;;;;10.60;99.90;;;11.05;55.71;101811.78;5533383;26;19935;-83
2024/04/11 02:21:49;;;;;;;;;;;10.60;99.90;;;11.07;55.34;101809.75;5533172;26;20289;-83
2024/04/11 02:24:16;;;;;;;;;;;10.60;99.90;;;11.07;54.81;101808.94;5526923;26;20006;-82
2024/04/11 02:26:47;;;;;;;;;;;10.60;99.90;;;11.06;54.99;101805.44;5495908;26;19928;-82
2024/04/11 02:29:15;;;;;;;;;;;10.60;99.90;;;11.08;55.32;101802.59;5497542;26;19992;-82
2024/04/11 02:31:47;;;;;;;;;;;10.60;99.90;;;11.09;55.15;101804.25;5496315;25;19961;-82
2024/04/11 02:34:13;;;;;;;;;;;10.60;99.90;;;11.05;54.57;101797.63;5494915;26;19932;-83
2024/04/11 02:36:42;;;;;;;;;;;10.60;99.90;;;10.96;54.54;101791.50;5495395;26;19996;-82
2024/04/11 02:39:12;;;;;;;;;;;10.60;99.90;;;10.92;54.61;101786.72;5494005;26;20256;-82
2024/04/11 02:41:41;;;;;;;;;;;10.60;99.90;;;10.95;55.09;101794.38;5493941;26;19931;-82
2024/04/11 02:44:08;;;;;;;;;;;10.50;99.90;;;11.00;54.43;101790.16;5494815;26;19939;-82
2024/04/11 02:46:39;;;;;;;;;;;10.60;99.90;;;11.04;54.66;101791.44;5530379;26;19927;-83
2024/04/11 02:49:08;;;;;;;;;;;10.70;99.90;;;11.06;54.82;101793.94;5528704;25;19951;-82
2024/04/11 02:51:38;;;;;;;;;;;10.70;99.90;;;11.07;54.40;101795.56;5496050;26;19928;-82
2024/04/11 02:54:05;;;;;;;;;;;10.70;99.90;;;11.11;54.57;101791.53;5494962;26;19934;-82
2024/04/11 02:56:33;;;;;;;;;;;10.70;99.90;;;11.06;54.05;101784.06;5498223;26;19928;-82
2024/04/11 02:59:00;;;;;;;;;;;10.70;99.90;;;11.05;53.91;101786.94;5495581;26;19935;-82
2024/04/11 03:01:31;;;;;;;;;;;10.70;99.90;;;11.03;54.09;101795.13;5496022;26;19928;-82
2024/04/11 03:04:01;;;;;;;;;;;10.70;99.90;;;11.07;54.30;101791.06;5497242;26;19928;-82
2024/04/11 03:06:35;;;;;;;;;;;10.70;99.90;;;11.16;54.45;101793.66;5531619;25;19936;-82
2024/04/11 03:09:03;;;;;;;;;;;10.70;99.90;;;11.08;53.15;101797.25;5534669;26;20025;-82
2024/04/11 03:11:32;;;;;;;;;;;10.80;99.90;;;10.99;52.90;101791.16;5533945;26;19975;-82
2024/04/11 03:14:00;;;;;;;;;;;10.70;99.90;;;11.01;53.71;101798.97;5531687;25;19927;-82
2024/04/11 03:16:30;;;;;;;;;;;10.70;99.90;;;11.00;53.79;101802.66;5534443;25;20387;-82
2024/04/11 03:18:57;;;;;;;;;;;10.70;99.90;;;11.03;52.82;101794.31;5532848;26;20003;-83
2024/04/11 03:21:26;;;;;;;;;;;10.80;99.90;;;11.08;53.56;101789.25;5532241;26;19927;-82
2024/04/11 03:23:55;;;;;;;;;;;10.80;99.90;;;11.13;53.83;101800.22;5534677;25;19927;-82
2024/04/11 03:26:24;;;;;;;;;;;10.80;99.90;;;11.16;53.52;101796.34;5532744;25;19952;-82
2024/04/11 03:28:50;;;;;;;;;;;10.80;99.90;;;11.18;53.05;101797.81;5532099;26;20386;-82
2024/04/11 03:31:21;;;;;;;;;;;10.80;99.90;;;11.12;53.21;101789.69;5468744;26;19933;-82
2024/04/11 03:33:47;;;;;;;;;;;10.80;99.90;;;11.07;53.19;101790.25;5532206;25;19995;-82
2024/04/11 03:36:16;;;;;;;;;;;10.80;99.90;;;11.05;53.40;101794.94;5498921;25;19928;-82
2024/04/11 03:38:45;;;;;;;;;;;10.80;99.90;;;11.05;53.44;101792.28;5494216;26;20462;-82
2024/04/11 03:41:18;;;;;;;;;;;10.80;99.90;;;11.11;53.37;101791.53;5495056;26;19943;-82
2024/04/11 03:43:54;;;;;;;;;;;10.80;99.90;;;11.11;53.54;101791.53;5493486;26;19935;-82
2024/04/11 03:46:24;;;;;;;;;;;10.80;99.90;;;11.14;53.40;101780.50;5465062;26;19935;-83
2024/04/11 03:48:55;;;;;;;;;;;10.90;99.90;;;11.19;52.97;101780.78;5493920;26;19935;-82
2024/04/11 03:51:25;;;;;;;;;;;10.90;99.90;;;11.09;53.33;101778.38;5495111;26;19939;-82
2024/04/11 03:53:53;;;;;;;;;;;10.90;99.90;;;11.13;53.72;101770.03;5496430;26;19928;-82
2024/04/11 03:56:27;;;;;;;;;;;10.90;99.90;;;11.18;53.25;101765.78;5495748;26;19980;-82
2024/04/11 03:58:56;;;;;;;;;;;10.90;99.90;;;11.20;52.53;101769.09;5493751;26;19928;-82
2024/04/11 04:01:26;;;;;;;;;;;10.90;99.90;;;11.20;52.96;101763.75;5494204;26;19960;-82
2024/04/11 04:03:56;;;;;;;;;;;10.90;99.90;;;11.26;53.33;101768.34;5513461;25;20200;-82
2024/04/11 04:06:25;;;;;;;;;;;11.00;99.90;;;11.32;53.64;101774.78;5529054;26;20013;-83
2024/04/11 04:08:52;;;;;;;;;;;11.00;99.90;;;11.34;53.00;101760.25;5531500;25;19935;-83
2024/04/11 04:11:22;;;;;;;;;;;11.00;99.90;;;11.29;52.39;101761.81;5532976;25;19942;-82
2024/04/11 04:13:52;;;;;;;;;;;11.00;99.90;;;11.19;52.75;101764.75;5533312;25;19928;-83
2024/04/11 04:16:23;;;;;;;;;;;11.00;99.90;;;11.22;52.40;101758.22;5502353;26;19943;-82
2024/04/11 04:18:50;;;;;;;;;;;11.00;99.90;;;11.18;53.06;101757.78;5501822;26;19963;-82
2024/04/11 04:21:20;;;;;;;;;;;11.00;99.90;;;11.22;53.22;101752.88;5533872;25;20050;-82
2024/04/11 04:23:48;;;;;;;;;;;11.00;99.90;;;11.17;52.87;101761.44;5534643;25;19936;-82
2024/04/11 04:26:20;;;;;;;;;;;11.00;99.90;;;11.20;52.80;101757.56;5505410;26;19928;-81
2024/04/11 04:28:48;;;;;;;;;;;11.00;99.90;;;11.26;52.91;101757.66;5506153;26;19927;-81
2024/04/11 04:31:23;;;;;;;;;;;11.10;99.90;;;11.22;52.54;101761.72;5535750;26;19931;-81
2024/04/11 04:33:52;;;;;;;;;;;11.10;99.90;;;11.25;52.32;101755.19;5513963;26;19976;-81
2024/04/11 04:36:24;;;;;;;;;;;11.10;99.90;;;11.27;52.90;101753.16;5503067;26;19928;-82
2024/04/11 04:38:50;;;;;;;;;;;11.10;99.90;;;11.24;52.52;101746.34;5502475;26;19988;-82
2024/04/11 04:41:20;;;;;;;;;;;11.10;99.90;;;11.30;53.00;101752.78;5500709;26;20379;-82
2024/04/11 04:43:53;;;;;;;;;;;11.10;99.90;;;11.21;52.09;101748.53;5526894;26;19935;-82
2024/04/11 04:46:25;;;;;;;;;;;11.10;99.90;;;11.24;52.45;101756.19;5534329;25;20343;-82
2024/04/11 04:48:52;;;;;;;;;;;11.10;99.90;;;11.30;52.66;101747.44;5529995;26;19934;-82
2024/04/11 04:51:26;;;;;;;;;;;11.10;99.90;;;11.29;52.31;101735.94;5531950;26;19927;-82
2024/04/11 04:53:54;;;;;;;;;;;11.10;99.90;;;11.31;52.91;101743.75;5502202;26;19972;-82
2024/04/11 04:56:24;;;;;;;;;;;11.10;99.90;;;11.29;52.92;101745.81;5492657;26;19935;-84
2024/04/11 04:58:51;;;;;;;;;;;11.20;99.90;;;11.28;52.69;101741.47;5493725;26;19928;-83
2024/04/11 05:01:21;;;;;;;;;;;11.10;99.90;;;11.31;52.90;101744.59;5494087;26;20371;-83
2024/04/11 05:03:50;;;;;;;;;;;11.10;99.90;;;11.34;52.79;101743.41;5520013;26;20025;-83
2024/04/11 05:06:19;;;;;;;;;;;11.20;99.90;;;11.37;53.23;101747.53;5532464;26;19928;-83
2024/04/11 05:08:46;;;;;;;;;;;11.20;99.90;;;11.30;52.86;101742.94;5532270;26;19934;-83
2024/04/11 05:11:15;;;;;;;;;;;11.20;99.90;;;11.27;51.90;101753.16;5534814;26;19976;-83
2024/04/11 05:13:42;;;;;;;;;;;11.20;99.90;;;11.29;51.90;101754.63;5508412;26;19928;-83
2024/04/11 05:16:18;;;;;;;;;;;11.20;99.90;;;11.32;52.41;101748.94;5497617;26;19935;-83
2024/04/11 05:18:49;;;;;;;;;;;11.20;99.90;;;11.38;53.53;101751.88;5465003;26;19928;-83
2024/04/11 05:21:24;;;;;;;;;;;11.30;99.90;;;11.40;53.15;101760.53;5509158;26;20283;-83
2024/04/11 05:23:50;;;;;;;;;;;11.30;99.90;;;11.39;52.14;101753.53;5534689;26;19937;-83
2024/04/11 05:26:23;;;;;;;;;;;11.30;99.90;;;11.43;52.68;101763.66;5534034;25;20300;-83
2024/04/11 05:28:51;;;;;;;;;;;11.30;99.90;;;11.39;52.23;101757.03;5533778;26;19953;-83
2024/04/11 05:31:25;;;;;;;;;;;11.30;99.90;;;11.43;52.80;101757.50;5533587;25;19978;-83
2024/04/11 05:33:53;;;;;;;;;;;11.40;99.90;;;11.43;52.70;101758.31;5533837;25;19927;-83
2024/04/11 05:36:28;;;;;;;;;;;11.40;99.90;;;11.46;52.11;101754.44;5500648;26;19995;-83
2024/04/11 05:38:56;;;;;;;;;;;11.40;99.90;;;11.55;52.73;101762.16;5502038;26;19935;-83
2024/04/11 05:41:25;;;;;;;;;;;11.50;99.90;;;11.58;52.53;101752.97;5533954;25;19996;-83
2024/04/11 05:43:51;;;;;;;;;;;11.40;99.90;;;11.57;52.53;101754.00;5534076;26;19934;-83
2024/04/11 05:46:22;;;;;;;;;;;11.50;99.90;;;11.57;52.00;101746.81;5531097;26;20005;-83
2024/04/11 05:48:50;;;;;;;;;;;11.50;99.90;;;11.60;52.43;101754.41;5500746;26;20363;-83
2024/04/11 05:51:20;;;;;;;;;;;11.50;99.90;;;11.62;52.62;101743.56;5531397;26;19928;-83
2024/04/11 05:53:49;;;;;;;;;;;11.50;99.90;;;11.59;52.38;101754.63;5531342;26;20255;-83
2024/04/11 05:56:18;;;;;;;;;;;11.60;99.90;;;11.62;52.91;101750.75;5533222;26;19932;-83
2024/04/11 05:58:45;;;;;;;;;;;11.60;99.90;;;11.58;52.30;101758.31;5531710;26;20083;-83
2024/04/11 06:01:15;;;;;;;;;;;11.60;99.90;;;11.63;52.43;101763.09;5531066;26;20438;-83
2024/04/11 06:03:46;;;;;;;;;;;11.60;99.90;;;11.64;53.26;101762.06;5531862;26;19940;-83
2024/04/11 06:06:19;;;;;;;;;;;11.60;99.90;;;11.69;52.71;101760.50;5532149;26;19995;-83
2024/04/11 06:08:46;;;;;;;;;;;11.60;99.90;;;11.70;52.96;101769.34;5533538;25;19934;-83
2024/04/11 06:11:21;;;;;;;;;;;11.60;99.90;;;11.70;52.55;101774.69;5531387;26;20284;-84
2024/04/11 06:13:47;;;;;;;;;;;11.60;99.90;;;11.68;52.95;101776.72;5531484;26;19927;-83
2024/04/11 06:16:17;;;;;;;;;;;11.60;99.90;;;11.69;53.28;101781.88;5532420;26;19953;-81
2024/04/11 06:18:44;;;;;;;;;;;11.60;99.90;;;11.66;53.29;101787.59;5533011;25;20279;-83
2024/04/11 06:21:18;;;;;;;;;;;11.60;99.90;;;11.72;53.10;101786.88;5530281;26;19928;-83
2024/04/11 06:23:44;;;;;;;;;;;11.60;99.90;;;11.73;52.74;101790.38;5529543;26;19927;-83
2024/04/11 06:26:19;;;;;;;;;;;11.60;99.90;;;11.69;53.13;101789.91;5530812;26;19927;-83
2024/04/11 06:28:46;;;;;;;;;;;11.60;99.90;;;11.76;53.65;101800.66;5530958;26;19967;-83
2024/04/11 06:31:18;;;;;;;;;;;11.70;99.90;;;11.77;54.52;101799.66;5531932;25;19928;-83
2024/04/11 06:33:54;;;;;;;;;;;11.70;99.90;;;11.80;54.53;101797.44;5531609;25;19934;-83
2024/04/11 06:36:23;;;;;;;;;;;11.70;99.90;;;11.76;53.65;101816.69;5531445;25;19932;-83
2024/04/11 06:38:51;;;;;;;;;;;11.60;99.90;;;11.79;53.95;101811.81;5530179;26;20376;-83
2024/04/11 06:41:23;;;;;;;;;;;11.70;99.90;;;11.76;53.67;101814.88;5530331;26;19934;-83
2024/04/11 06:43:50;;;;;;;;;;;11.70;99.90;;;11.71;53.22;101819.09;5530466;26;19927;-83
2024/04/11 06:46:20;;;;;;;;;;;11.60;99.90;;;11.72;54.21;101818.09;5531791;25;19972;-84
2024/04/11 06:48:46;;;;;;;;;;;11.60;99.90;;;11.73;54.13;101822.44;5531669;26;19934;-81
2024/04/11 06:51:19;;;;;;;;;;;11.60;99.90;;;11.71;53.61;101822.63;5528716;26;19953;-83
2024/04/11 06:53:46;;;;;;;;;;;11.60;99.90;;;11.72;54.20;101820.78;5530176;26;19955;-83
2024/04/11 06:56:17;;;;;;;;;;;11.60;99.90;;;11.76;54.12;101822.91;5530066;26;19928;-83
2024/04/11 06:58:46;;;;;;;;;;;11.70;99.90;;;11.76;54.22;101822.91;5529806;26;19927;-83
2024/04/11 07:01:16;;;;;;;;;;;11.70;99.90;;;11.79;54.22;101824.34;5531893;26;19994;-84
2024/04/11 07:03:43;;;;;;;;;;;11.70;99.90;;;11.83;54.37;101831.84;5530117;26;19927;-83
2024/04/11 07:06:21;;;;;;;;;;;11.60;99.90;;;11.80;54.32;101834.03;5531991;26;20270;-83
2024/04/11 07:08:48;;;;;;;;;;;11.70;99.90;;;11.82;54.90;101840.88;5529819;26;19939;-83
2024/04/11 07:11:27;;;;;;;;;;;11.70;99.90;;;11.80;54.11;101848.22;5531063;25;19927;-83
2024/04/11 07:13:58;;;;;;;;;;;11.70;99.90;;;11.80;54.51;101847.38;5501566;26;19959;-83
2024/04/11 07:16:29;;;;;;;;;;;11.70;99.90;;;11.75;54.00;101837.25;5530361;26;19927;-83
2024/04/11 07:18:55;;;;;;;;;;;11.70;99.90;;;11.76;54.29;101846.94;5529850;26;19935;-83
2024/04/11 07:21:25;;;;;;;;;;;11.80;99.90;;;11.81;54.15;101852.56;5529346;26;19938;-83
2024/04/11 07:23:54;;;;;;;;;;;11.80;99.90;;;11.82;54.37;101854.25;5529348;26;19927;-83
2024/04/11 07:26:22;;;;;;;;;;;11.80;99.90;;;11.84;54.47;101859.41;5528875;26;19967;-82
2024/04/11 07:28:49;;;;;;;;;;;11.80;99.90;;;11.90;55.01;101853.31;5530486;25;19931;-84
2024/04/11 07:31:21;;;;;;;;;;;11.80;99.90;;;11.93;54.47;101852.94;5529538;26;20274;-84
2024/04/11 07:33:55;;;;;;;;;;;11.90;99.90;;;11.94;54.74;101861.78;5500487;26;19928;-84
2024/04/11 07:36:25;;;;;;;;;;;11.90;99.90;;;11.99;55.02;101857.53;5469170;26;20363;-84
2024/04/11 07:38:53;;;;;;;;;;;11.90;99.90;;;12.04;54.99;101865.00;5531252;25;19927;-84
2024/04/11 07:41:23;;;;;;;;;;;11.90;99.90;;;12.02;55.26;101859.88;5529419;26;19934;-84
2024/04/11 07:43:51;;;;;;;;;;;12.00;99.90;;;12.00;54.76;101861.03;5531079;26;19927;-84
2024/04/11 07:46:28;;;;;;;;;;;12.00;99.90;;;12.01;54.68;101852.03;5528766;26;19997;-84
2024/04/11 07:48:56;;;;;;;;;;;12.00;99.90;;;12.03;55.14;101861.50;5531320;25;19928;-84
2024/04/11 07:51:26;;;;;;;;;;;12.00;99.90;;;12.07;55.81;101857.47;5530941;26;19935;-84
2024/04/11 07:53:52;;;;;;;;;;;12.10;99.90;;;12.07;55.21;101857.47;5529609;26;20375;-84
2024/04/11 07:56:23;;;;;;;;;;;12.10;99.90;;;12.11;55.44;101861.41;5530682;26;19999;-84
2024/04/11 07:58:55;;;;;;;;;;;12.10;99.90;;;12.10;55.06;101862.44;5529528;26;19931;-84
2024/04/11 08:01:30;;;;;;;;;;;12.10;99.90;;;12.13;54.93;101866.56;5531076;26;20266;-84
2024/04/11 08:03:57;;;;;;;;;;;12.10;99.90;;;12.22;55.73;101853.94;5529640;26;19928;-84
2024/04/11 08:06:26;;;;;;;;;;;12.20;99.90;;;12.25;56.05;101866.91;5531019;26;19934;-83
2024/04/11 08:08:53;;;;;;;;;;;12.30;99.90;;;12.28;55.21;101870.03;5530640;25;20389;-84
2024/04/11 08:11:22;;;;;;;;;;;12.30;99.90;;;12.32;55.63;101867.81;5530965;26;19996;-84
2024/04/11 08:13:48;;;;;;;;;;;12.40;99.90;;;12.36;54.88;101877.13;5528827;26;19927;-84
2024/04/11 08:16:17;;;;;;;;;;;12.40;99.90;;;12.40;55.58;101870.41;5528432;26;19938;-84
2024/04/11 08:18:47;;;;;;;;;;;12.50;99.90;;;12.45;55.47;101872.50;5528555;26;19927;-83
2024/04/11 08:21:16;;;;;;;;;;;12.50;99.90;;;12.48;55.68;101872.13;5530699;26;19935;-83
2024/04/11 08:23:43;;;;;;;;;;;12.50;99.90;;;12.50;55.44;101883.47;5498045;26;19927;-83
2024/04/11 08:26:12;;;;;;;;;;;12.60;99.90;;;12.51;55.24;101885.97;5528549;26;19996;-84
2024/04/11 08:28:40;;;;;;;;;;;12.60;99.90;;;12.56;56.18;101882.72;5528436;26;19927;-83
2024/04/11 08:31:11;;;;;;;;;;;12.70;99.90;;;12.67;57.24;101881.38;5527891;26;19934;-83
2024/04/11 08:33:37;;;;;;;;;;;12.70;99.90;;;12.73;56.14;101883.28;5498607;26;20455;-84
2024/04/11 08:36:10;;;;;;;;;;;12.80;99.90;;;12.75;56.38;101878.59;5527722;26;19996;-84
2024/04/11 08:38:40;;;;;;;;;;;12.90;99.90;;;12.79;56.51;101883.38;5529283;26;19940;-84
2024/04/11 08:41:10;;;;;;;;;;;12.90;99.90;;;12.76;56.04;101882.91;5533850;25;20432;-84
2024/04/11 08:43:38;;;;;;;;;;;12.90;99.90;;;12.80;56.55;101890.38;5534520;25;19945;-84
2024/04/11 08:46:10;;;;;;;;;;;12.90;99.90;;;12.82;55.72;101888.31;5531493;26;19937;-84
2024/04/11 08:48:37;;;;;;;;;;;13.00;99.90;;;12.88;55.54;101887.59;5532485;26;20358;-83
2024/04/11 08:51:13;;;;;;;;;;;13.00;99.90;;;12.88;56.02;101882.22;5532081;26;19927;-83
2024/04/11 08:53:44;;;;;;;;;;;13.10;99.90;;;12.89;56.14;101891.09;5533818;26;19939;-83
2024/04/11 08:56:16;;;;;;;;;;;13.10;99.90;;;12.88;55.08;101898.28;5533870;25;19935;-83
2024/04/11 08:58:43;;;;;;;;;;;13.10;99.90;;;12.86;55.96;101900.31;5531753;26;19927;-84
2024/04/11 09:01:14;;;;;;;;;;;13.00;99.90;;;12.89;56.75;101902.63;5531715;26;19927;-83
2024/04/11 09:03:41;;;;;;;;;;;13.00;99.90;;;12.92;56.37;101908.59;5532275;26;19934;-84
2024/04/11 09:06:14;;;;;;;;;;;13.10;99.90;;;12.95;57.93;101908.22;5533744;26;19934;-83
2024/04/11 09:08:40;;;;;;;;;;;13.10;99.90;;;12.92;56.51;101920.16;5533637;26;19934;-83
2024/04/11 09:11:10;;;;;;;;;;;13.00;99.90;;;12.93;56.88;101911.09;5531557;26;19935;-83
2024/04/11 09:13:36;;;;;;;;;;;13.10;99.90;;;12.94;56.70;101914.63;5532954;26;19927;-84
2024/04/11 09:16:07;;;;;;;;;;;13.00;99.90;;;12.97;56.33;101916.91;5533602;25;19927;-83
2024/04/11 09:18:33;;;;;;;;;;;13.00;99.90;;;12.99;56.69;101918.38;5531352;26;19951;-84
2024/04/11 09:21:04;;;;;;;;;;;13.10;99.90;;;13.03;57.74;101921.47;5533859;25;20399;-84
2024/04/11 09:23:34;;;;;;;;;;;13.10;99.90;;;13.04;56.62;101921.31;5534489;25;19927;-84
2024/04/11 09:26:04;;;;;;;;;;;13.20;99.90;;;13.13;57.31;101913.97;5533784;26;19956;-83
2024/04/11 09:28:31;;;;;;;;;;;13.30;99.90;;;13.24;57.60;101928.72;5472361;26;20000;-84
2024/04/11 09:31:00;;;;;;;;;;;13.40;99.90;;;13.34;57.50;101924.69;5532134;26;19996;-84
2024/04/11 09:33:27;;;;;;;;;;;13.50;99.90;;;13.40;57.30;101929.28;5530462;26;19935;-84
2024/04/11 09:36:03;;;;;;;;;;;13.70;99.90;;;13.47;56.71;101928.47;5533739;25;19963;-84
2024/04/11 09:38:30;;;;;;;;;;;13.70;99.90;;;13.51;57.44;101935.94;5531707;26;20027;-84
2024/04/11 09:41:04;;;;;;;;;;;13.70;99.90;;;13.52;56.91;101928.75;5531948;26;19938;-83
2024/04/11 09:43:35;;;;;;;;;;;13.70;99.90;;;13.52;57.37;101934.13;5533014;25;19927;-84
2024/04/11 09:46:06;;;;;;;;;;;13.70;99.90;;;13.51;57.72;101929.75;5530254;26;19996;-84
2024/04/11 09:48:38;;;;;;;;;;;13.70;99.90;;;13.50;58.06;101941.50;5533312;25;20009;-84
2024/04/11 09:51:10;;;;;;;;;;;13.70;99.90;;;13.49;56.90;101942.53;5470502;26;20319;-84
2024/04/11 09:53:37;;;;;;;;;;;13.70;99.90;;;13.48;56.74;101940.88;5532099;26;19941;-84
2024/04/11 09:56:09;;;;;;;;;;;13.60;99.90;;;13.47;57.22;101936.53;5468611;26;19938;-83
2024/04/11 09:58:38;;;;;;;;;;;13.60;99.90;;;13.49;57.69;101937.19;5533462;25;19927;-84
2024/04/11 10:01:29;;;;;;;;;;;13.70;99.90;;;13.53;57.77;101933.09;5532755;26;19935;-84
2024/04/11 10:04:04;;;;;;;;;;;13.70;99.90;;;13.56;58.18;101919.28;5533127;26;19932;-84
2024/04/11 10:06:35;;;;;;;;;;;13.80;99.90;;;13.63;59.07;101922.84;5531423;26;19932;-83
2024/04/11 10:09:17;;;;;;;;;;;13.80;99.90;;;13.64;58.82;101927.19;5532566;26;19927;-84
2024/04/11 10:11:51;;;;;;;;;;;13.80;99.90;;;13.63;58.99;101936.25;5529973;26;19927;-84
2024/04/11 10:14:18;;;;;;;;;;;13.80;99.90;;;13.64;59.33;101930.69;5531072;26;19968;-84
2024/04/11 10:16:51;;;;;;;;;;;13.80;99.90;;;13.70;59.49;101938.97;5532251;25;19959;-82
2024/04/11 10:19:26;;;;;;;;;;;13.90;99.90;;;13.72;59.69;101940.44;5532631;26;20383;-84
2024/04/11 10:22:04;;;;;;;;;;;13.90;99.90;;;13.74;59.56;101938.38;5532196;25;19935;-84
2024/04/11 10:24:31;;;;;;;;;;;13.90;99.90;;;13.74;59.20;101946.44;5532229;26;20340;-84
2024/04/11 10:27:18;;;;;;;;;;;13.90;99.90;;;13.76;59.12;101949.78;5532325;25;19995;-84
2024/04/11 10:29:46;;;;;;;;;;;13.90;99.90;;;13.74;58.38;101956.34;5499936;26;20412;-84
2024/04/11 10:32:26;;;;;;;;;;;13.90;99.90;;;13.75;58.86;101952.63;5531971;26;20383;-84
2024/04/11 10:34:56;;;;;;;;;;;13.90;99.90;;;13.72;57.94;101964.59;5532550;25;19934;-84
2024/04/11 10:37:26;;;;;;;;;;;13.90;99.90;;;13.74;58.71;101967.88;5529857;26;19939;-84
2024/04/11 10:39:54;;;;;;;;;;;13.90;99.90;;;13.74;59.67;101970.56;5532582;25;19927;-84
2024/04/11 10:42:36;;;;;;;;;;;14.00;99.90;;;13.81;59.90;101967.91;5531943;26;19947;-84
2024/04/11 10:45:07;;;;;;;;;;;14.00;99.90;;;13.83;59.88;101965.88;5530382;26;19928;-84
2024/04/11 10:47:38;;;;;;;;;;;14.00;99.90;;;13.92;60.40;101970.09;5532415;26;20367;-84
2024/04/11 10:50:09;;;;;;;;;;;14.10;99.90;;;13.99;61.47;101964.75;5531919;25;20344;-85
2024/04/11 10:52:45;;;;;;;;;;;14.20;99.90;;;14.03;60.88;101968.69;5531601;25;20309;-84
2024/04/11 10:55:22;;;;;;;;;;;14.20;99.90;;;14.06;61.00;101974.50;5531178;25;19931;-84
2024/04/11 10:58:08;;;;;;;;;;;14.20;99.90;;;14.08;60.93;101987.72;5529514;26;20423;-84
2024/04/11 11:01:07;;;;;;;;;;;14.30;99.90;;;14.09;60.75;101984.00;5529810;26;19934;-84
2024/04/11 11:06:19;;;;;;;;;;;14.30;99.90;;;14.08;61.72;101993.09;5529935;26;19928;-84
2024/04/11 11:08:46;;;;;;;;;;;14.30;99.90;;;14.07;62.27;101994.13;5470280;26;19928;-84
2024/04/11 11:11:18;;;;;;;;;;;14.20;99.90;;;14.06;62.25;102003.19;5531267;26;19950;-84
2024/04/11 11:13:52;;;;;;;;;;;14.20;99.90;;;14.08;62.51;102001.13;5528900;26;19936;-84
2024/04/11 11:16:26;;;;;;;;;;;14.20;99.90;;;14.07;62.38;102002.16;5498170;26;19927;-82
2024/04/11 11:18:52;;;;;;;;;;;14.30;99.90;;;14.08;62.87;102003.81;5529314;26;19934;-84
2024/04/11 11:21:22;;;;;;;;;;;14.20;99.90;;;14.11;62.53;102003.44;5529757;26;20379;-82
2024/04/11 11:23:59;;;;;;;;;;;14.20;99.90;;;14.13;62.85;102004.06;5531072;26;19963;-84